sensor_id;sensor_type;location;lat;lon;timestamp;pressure;altitude;pressure_sealevel;temperature;humidity
75551;BME280;65071;53.082;18.218;2023-02-01T00:00:54;99901.05;;;2.80;83.46
75551;BME280;65071;53.082;18.218;2023-02-01T00:03:26;99910.04;;;2.81;83.81
75551;BME280;65071;53.082;18.218;2023-02-01T00:05:57;99919.38;;;2.86;83.48
75551;BME280;65071;53.082;18.218;2023-02-01T00:08:24;99918.52;;;2.93;83.27
75551;BME280;65071;53.082;18.218;2023-02-01T00:11:11;99923.91;;;2.98;83.26
75551;BME280;65071;53.082;18.218;2023-02-01T00:13:40;99918.87;;;3.10;82.99
75551;BME280;65071;53.082;18.218;2023-02-01T00:16:11;99920.76;;;3.11;83.03
75551;BME280;65071;53.082;18.218;2023-02-01T00:18:39;99927.31;;;3.10;82.62
75551;BME280;65071;53.082;18.218;2023-02-01T00:21:05;99927.05;;;3.12;82.78
75551;BME280;65071;53.082;18.218;2023-02-01T00:23:36;99930.46;;;3.22;82.64
75551;BME280;65071;53.082;18.218;2023-02-01T00:26:05;99925.97;;;3.26;82.40
75551;BME280;65071;53.082;18.218;2023-02-01T00:28:32;99921.88;;;3.26;82.47
75551;BME280;65071;53.082;18.218;2023-02-01T00:31:03;99924.98;;;3.26;82.28
75551;BME280;65071;53.082;18.218;2023-02-01T00:33:31;99927.75;;;3.27;82.08
75551;BME280;65071;53.082;18.218;2023-02-01T00:35:59;99930.66;;;3.32;82.10
75551;BME280;65071;53.082;18.218;2023-02-01T00:38:28;99946.39;;;3.35;82.12
75551;BME280;65071;53.082;18.218;2023-02-01T00:41:02;99938.87;;;3.38;81.85
75551;BME280;65071;53.082;18.218;2023-02-01T00:43:33;99943.84;;;3.34;81.88
75551;BME280;65071;53.082;18.218;2023-02-01T00:46:00;99952.11;;;3.31;82.05
75551;BME280;65071;53.082;18.218;2023-02-01T00:48:27;99952.94;;;3.38;81.87
75551;BME280;65071;53.082;18.218;2023-02-01T00:50:54;99951.63;;;3.45;81.57
75551;BME280;65071;53.082;18.218;2023-02-01T00:53:20;99956.02;;;3.43;81.53
75551;BME280;65071;53.082;18.218;2023-02-01T00:55:47;99948.70;;;3.39;81.55
75551;BME280;65071;53.082;18.218;2023-02-01T00:58:15;99949.68;;;3.40;81.53
75551;BME280;65071;53.082;18.218;2023-02-01T01:00:41;99946.73;;;3.44;81.54
75551;BME280;65071;53.082;18.218;2023-02-01T01:03:08;99948.02;;;3.47;81.05
75551;BME280;65071;53.082;18.218;2023-02-01T01:05:45;99944.89;;;3.46;81.44
75551;BME280;65071;53.082;18.218;2023-02-01T01:08:12;99945.86;;;3.43;81.30
75551;BME280;65071;53.082;18.218;2023-02-01T01:10:39;99946.65;;;3.45;81.53
75551;BME280;65071;53.082;18.218;2023-02-01T01:13:06;99942.27;;;3.46;81.93
75551;BME280;65071;53.082;18.218;2023-02-01T01:15:39;99938.81;;;3.47;81.69
75551;BME280;65071;53.082;18.218;2023-02-01T01:18:06;99937.40;;;3.47;81.70
75551;BME280;65071;53.082;18.218;2023-02-01T01:20:34;99934.75;;;3.45;82.04
75551;BME280;65071;53.082;18.218;2023-02-01T01:23:02;99939.65;;;3.41;82.11
75551;BME280;65071;53.082;18.218;2023-02-01T01:25:29;99943.08;;;3.41;82.04
75551;BME280;65071;53.082;18.218;2023-02-01T01:27:56;99942.00;;;3.43;82.42
75551;BME280;65071;53.082;18.218;2023-02-01T01:30:22;99939.48;;;3.45;82.11
75551;BME280;65071;53.082;18.218;2023-02-01T01:32:49;99932.77;;;3.43;82.19
75551;BME280;65071;53.082;18.218;2023-02-01T01:35:15;99940.35;;;3.39;82.29
75551;BME280;65071;53.082;18.218;2023-02-01T01:37:42;99943.60;;;3.39;82.27
75551;BME280;65071;53.082;18.218;2023-02-01T01:40:10;99945.05;;;3.40;82.31
75551;BME280;65071;53.082;18.218;2023-02-01T01:42:38;99942.45;;;3.44;82.56
75551;BME280;65071;53.082;18.218;2023-02-01T01:45:26;99940.36;;;3.47;82.07
75551;BME280;65071;53.082;18.218;2023-02-01T01:47:56;99934.75;;;3.45;82.21
75551;BME280;65071;53.082;18.218;2023-02-01T01:50:30;99934.80;;;3.42;82.37
75551;BME280;65071;53.082;18.218;2023-02-01T01:53:00;99940.34;;;3.42;82.51
75551;BME280;65071;53.082;18.218;2023-02-01T01:55:31;99935.25;;;3.41;82.40
75551;BME280;65071;53.082;18.218;2023-02-01T01:58:02;99939.88;;;3.43;82.44
75551;BME280;65071;53.082;18.218;2023-02-01T02:00:32;99939.83;;;3.41;82.43
75551;BME280;65071;53.082;18.218;2023-02-01T02:03:11;99943.33;;;3.40;82.60
75551;BME280;65071;53.082;18.218;2023-02-01T02:05:41;99943.80;;;3.40;82.63
75551;BME280;65071;53.082;18.218;2023-02-01T02:08:09;99947.10;;;3.40;82.69
75551;BME280;65071;53.082;18.218;2023-02-01T02:10:36;99944.72;;;3.38;82.93
75551;BME280;65071;53.082;18.218;2023-02-01T02:13:22;99945.55;;;3.39;82.71
75551;BME280;65071;53.082;18.218;2023-02-01T02:18:37;99941.70;;;3.38;82.88
75551;BME280;65071;53.082;18.218;2023-02-01T02:21:14;99940.41;;;3.34;82.70
75551;BME280;65071;53.082;18.218;2023-02-01T02:29:18;99933.36;;;3.34;82.40
75551;BME280;65071;53.082;18.218;2023-02-01T02:32:03;99932.15;;;3.36;82.15
75551;BME280;65071;53.082;18.218;2023-02-01T02:40:03;99937.95;;;3.32;81.31
75551;BME280;65071;53.082;18.218;2023-02-01T02:48:25;99934.75;;;3.28;81.50
75551;BME280;65071;53.082;18.218;2023-02-01T02:51:04;99941.14;;;3.28;80.97
75551;BME280;65071;53.082;18.218;2023-02-01T02:53:56;99939.58;;;3.32;80.79
75551;BME280;65071;53.082;18.218;2023-02-01T02:56:43;99938.70;;;3.38;80.67
75551;BME280;65071;53.082;18.218;2023-02-01T02:59:28;99943.82;;;3.42;80.13
75551;BME280;65071;53.082;18.218;2023-02-01T03:02:15;99947.41;;;3.44;80.23
75551;BME280;65071;53.082;18.218;2023-02-01T03:05:01;99948.73;;;3.45;79.69
75551;BME280;65071;53.082;18.218;2023-02-01T03:10:23;99945.48;;;3.60;79.28
75551;BME280;65071;53.082;18.218;2023-02-01T03:12:52;99948.43;;;3.57;79.11
75551;BME280;65071;53.082;18.218;2023-02-01T03:15:28;99958.88;;;3.53;78.71
75551;BME280;65071;53.082;18.218;2023-02-01T03:17:57;99962.70;;;3.52;78.67
75551;BME280;65071;53.082;18.218;2023-02-01T03:20:26;99965.79;;;3.58;78.44
75551;BME280;65071;53.082;18.218;2023-02-01T03:22:53;99959.80;;;3.61;78.29
75551;BME280;65071;53.082;18.218;2023-02-01T03:25:26;99959.16;;;3.65;78.12
75551;BME280;65071;53.082;18.218;2023-02-01T03:28:02;99962.39;;;3.62;77.49
75551;BME280;65071;53.082;18.218;2023-02-01T03:30:34;99964.73;;;3.64;77.35
75551;BME280;65071;53.082;18.218;2023-02-01T03:33:05;99966.00;;;3.70;77.43
75551;BME280;65071;53.082;18.218;2023-02-01T03:35:59;99958.52;;;3.74;77.32
75551;BME280;65071;53.082;18.218;2023-02-01T03:41:20;99953.96;;;3.76;77.23
75551;BME280;65071;53.082;18.218;2023-02-01T03:44:01;99960.23;;;3.75;76.81
75551;BME280;65071;53.082;18.218;2023-02-01T03:46:38;99956.10;;;3.76;76.99
75551;BME280;65071;53.082;18.218;2023-02-01T03:49:09;99955.10;;;3.77;76.56
75551;BME280;65071;53.082;18.218;2023-02-01T03:51:40;99955.80;;;3.75;76.84
75551;BME280;65071;53.082;18.218;2023-02-01T03:54:09;99948.79;;;3.74;76.93
75551;BME280;65071;53.082;18.218;2023-02-01T03:56:38;99952.32;;;3.78;76.48
75551;BME280;65071;53.082;18.218;2023-02-01T03:59:07;99949.13;;;3.80;76.42
75551;BME280;65071;53.082;18.218;2023-02-01T04:01:35;99947.10;;;3.79;76.74
75551;BME280;65071;53.082;18.218;2023-02-01T04:04:02;99941.64;;;3.76;76.19
75551;BME280;65071;53.082;18.218;2023-02-01T04:06:28;99946.27;;;3.74;76.17
75551;BME280;65071;53.082;18.218;2023-02-01T04:08:58;99944.27;;;3.73;76.45
75551;BME280;65071;53.082;18.218;2023-02-01T04:11:25;99936.89;;;3.76;75.94
75551;BME280;65071;53.082;18.218;2023-02-01T04:13:53;99936.02;;;3.74;76.21
75551;BME280;65071;53.082;18.218;2023-02-01T04:16:20;99936.38;;;3.67;76.34
75551;BME280;65071;53.082;18.218;2023-02-01T04:18:47;99937.61;;;3.57;76.43
75551;BME280;65071;53.082;18.218;2023-02-01T04:21:13;99935.39;;;3.54;76.28
75551;BME280;65071;53.082;18.218;2023-02-01T04:23:40;99932.89;;;3.54;76.54
75551;BME280;65071;53.082;18.218;2023-02-01T04:26:06;99936.65;;;3.58;76.60
75551;BME280;65071;53.082;18.218;2023-02-01T04:28:33;99927.39;;;3.54;76.75
75551;BME280;65071;53.082;18.218;2023-02-01T04:31:00;99928.85;;;3.55;76.49
75551;BME280;65071;53.082;18.218;2023-02-01T04:33:26;99933.05;;;3.46;76.92
75551;BME280;65071;53.082;18.218;2023-02-01T04:35:53;99933.22;;;3.40;76.86
75551;BME280;65071;53.082;18.218;2023-02-01T04:38:19;99940.98;;;3.40;76.76
75551;BME280;65071;53.082;18.218;2023-02-01T04:40:47;99932.89;;;3.43;77.17
75551;BME280;65071;53.082;18.218;2023-02-01T04:43:16;99934.69;;;3.49;77.07
75551;BME280;65071;53.082;18.218;2023-02-01T04:45:47;99936.73;;;3.55;77.10
75551;BME280;65071;53.082;18.218;2023-02-01T04:48:16;99941.27;;;3.60;76.97
75551;BME280;65071;53.082;18.218;2023-02-01T04:50:44;99930.65;;;3.63;77.35
75551;BME280;65071;53.082;18.218;2023-02-01T04:53:16;99938.20;;;3.71;77.79
75551;BME280;65071;53.082;18.218;2023-02-01T04:55:43;99931.07;;;3.69;77.64
75551;BME280;65071;53.082;18.218;2023-02-01T04:58:10;99931.43;;;3.58;77.48
75551;BME280;65071;53.082;18.218;2023-02-01T05:00:37;99930.09;;;3.53;77.96
75551;BME280;65071;53.082;18.218;2023-02-01T05:03:04;99930.38;;;3.52;78.25
75551;BME280;65071;53.082;18.218;2023-02-01T05:05:30;99926.91;;;3.59;77.99
75551;BME280;65071;53.082;18.218;2023-02-01T05:07:57;99917.68;;;3.63;78.01
75551;BME280;65071;53.082;18.218;2023-02-01T05:10:24;99915.25;;;3.65;77.76
75551;BME280;65071;53.082;18.218;2023-02-01T05:12:51;99907.44;;;3.64;77.98
75551;BME280;65071;53.082;18.218;2023-02-01T05:15:36;99912.20;;;3.69;77.62
75551;BME280;65071;53.082;18.218;2023-02-01T05:18:03;99915.30;;;3.75;77.46
75551;BME280;65071;53.082;18.218;2023-02-01T05:20:30;99910.84;;;3.69;77.57
75551;BME280;65071;53.082;18.218;2023-02-01T05:22:56;99916.93;;;3.64;77.49
75551;BME280;65071;53.082;18.218;2023-02-01T05:25:23;99914.28;;;3.61;77.58
75551;BME280;65071;53.082;18.218;2023-02-01T05:27:49;99908.73;;;3.64;76.89
75551;BME280;65071;53.082;18.218;2023-02-01T05:30:17;99906.58;;;3.66;76.72
75551;BME280;65071;53.082;18.218;2023-02-01T05:32:43;99913.98;;;3.65;76.66
75551;BME280;65071;53.082;18.218;2023-02-01T05:35:10;99912.30;;;3.61;76.67
75551;BME280;65071;53.082;18.218;2023-02-01T05:37:37;99909.79;;;3.62;76.87
75551;BME280;65071;53.082;18.218;2023-02-01T05:40:04;99913.46;;;3.65;77.09
75551;BME280;65071;53.082;18.218;2023-02-01T05:42:31;99915.84;;;3.73;76.84
75551;BME280;65071;53.082;18.218;2023-02-01T05:44:58;99915.82;;;3.73;76.82
75551;BME280;65071;53.082;18.218;2023-02-01T05:47:24;99915.16;;;3.72;76.59
75551;BME280;65071;53.082;18.218;2023-02-01T05:49:51;99916.10;;;3.69;76.69
75551;BME280;65071;53.082;18.218;2023-02-01T05:52:17;99923.62;;;3.69;76.76
75551;BME280;65071;53.082;18.218;2023-02-01T05:54:46;99922.80;;;3.72;76.85
75551;BME280;65071;53.082;18.218;2023-02-01T05:57:14;99921.54;;;3.68;76.94
75551;BME280;65071;53.082;18.218;2023-02-01T05:59:41;99929.98;;;3.67;77.21
75551;BME280;65071;53.082;18.218;2023-02-01T06:02:08;99927.59;;;3.66;76.99
75551;BME280;65071;53.082;18.218;2023-02-01T06:04:36;99929.88;;;3.66;77.51
75551;BME280;65071;53.082;18.218;2023-02-01T06:07:03;99935.33;;;3.69;77.26
75551;BME280;65071;53.082;18.218;2023-02-01T06:09:30;99937.98;;;3.67;76.94
75551;BME280;65071;53.082;18.218;2023-02-01T06:11:56;99938.17;;;3.65;77.33
75551;BME280;65071;53.082;18.218;2023-02-01T06:14:24;99944.14;;;3.64;77.64
75551;BME280;65071;53.082;18.218;2023-02-01T06:16:50;99936.28;;;3.64;77.46
75551;BME280;65071;53.082;18.218;2023-02-01T06:19:17;99940.27;;;3.70;77.18
75551;BME280;65071;53.082;18.218;2023-02-01T06:21:44;99942.64;;;3.75;77.31
75551;BME280;65071;53.082;18.218;2023-02-01T06:24:10;99942.66;;;3.73;77.41
75551;BME280;65071;53.082;18.218;2023-02-01T06:26:40;99946.58;;;3.73;77.19
75551;BME280;65071;53.082;18.218;2023-02-01T06:29:09;99952.00;;;3.72;77.29
75551;BME280;65071;53.082;18.218;2023-02-01T06:31:35;99953.76;;;3.74;77.28
75551;BME280;65071;53.082;18.218;2023-02-01T06:34:02;99949.98;;;3.77;77.03
75551;BME280;65071;53.082;18.218;2023-02-01T06:36:29;99948.48;;;3.75;77.37
75551;BME280;65071;53.082;18.218;2023-02-01T06:38:56;99952.98;;;3.73;77.08
75551;BME280;65071;53.082;18.218;2023-02-01T06:41:23;99953.27;;;3.71;76.87
75551;BME280;65071;53.082;18.218;2023-02-01T06:43:49;99953.81;;;3.73;77.06
75551;BME280;65071;53.082;18.218;2023-02-01T06:46:17;99955.23;;;3.75;77.18
75551;BME280;65071;53.082;18.218;2023-02-01T06:48:43;99954.45;;;3.78;77.18
75551;BME280;65071;53.082;18.218;2023-02-01T06:51:19;99953.79;;;3.84;77.01
75551;BME280;65071;53.082;18.218;2023-02-01T06:53:46;99950.83;;;3.83;77.01
75551;BME280;65071;53.082;18.218;2023-02-01T06:56:12;99951.50;;;3.84;76.92
75551;BME280;65071;53.082;18.218;2023-02-01T06:58:39;99950.88;;;3.87;76.49
75551;BME280;65071;53.082;18.218;2023-02-01T07:01:08;99952.42;;;3.93;76.67
75551;BME280;65071;53.082;18.218;2023-02-01T07:03:35;99957.57;;;4.02;76.36
75551;BME280;65071;53.082;18.218;2023-02-01T07:06:02;99955.73;;;4.00;76.14
75551;BME280;65071;53.082;18.218;2023-02-01T07:08:32;99950.13;;;3.98;76.11
75551;BME280;65071;53.082;18.218;2023-02-01T07:11:07;99949.43;;;3.99;75.91
75551;BME280;65071;53.082;18.218;2023-02-01T07:13:34;99948.84;;;4.00;75.59
75551;BME280;65071;53.082;18.218;2023-02-01T07:16:04;99952.59;;;4.08;76.02
75551;BME280;65071;53.082;18.218;2023-02-01T07:18:31;99948.67;;;4.12;75.61
75551;BME280;65071;53.082;18.218;2023-02-01T07:20:59;99954.30;;;4.07;75.63
75551;BME280;65071;53.082;18.218;2023-02-01T07:23:27;99951.79;;;4.07;75.65
75551;BME280;65071;53.082;18.218;2023-02-01T07:25:56;99951.90;;;4.08;74.98
75551;BME280;65071;53.082;18.218;2023-02-01T07:28:23;99949.27;;;4.09;75.11
75551;BME280;65071;53.082;18.218;2023-02-01T07:30:51;99943.83;;;4.15;74.81
75551;BME280;65071;53.082;18.218;2023-02-01T07:33:23;99942.55;;;4.19;74.37
75551;BME280;65071;53.082;18.218;2023-02-01T07:35:50;99944.38;;;4.12;74.21
75551;BME280;65071;53.082;18.218;2023-02-01T07:38:17;99945.09;;;4.16;74.14
75551;BME280;65071;53.082;18.218;2023-02-01T07:40:44;99945.05;;;4.33;74.03
75551;BME280;65071;53.082;18.218;2023-02-01T07:43:10;99942.89;;;4.70;73.75
75551;BME280;65071;53.082;18.218;2023-02-01T07:45:37;99936.26;;;5.01;73.09
75551;BME280;65071;53.082;18.218;2023-02-01T07:48:04;99932.10;;;4.96;72.10
75551;BME280;65071;53.082;18.218;2023-02-01T07:50:31;99927.80;;;4.97;72.52
75551;BME280;65071;53.082;18.218;2023-02-01T07:52:59;99924.70;;;5.28;71.53
75551;BME280;65071;53.082;18.218;2023-02-01T07:55:27;99924.86;;;5.70;70.22
75551;BME280;65071;53.082;18.218;2023-02-01T07:57:57;99927.60;;;6.15;69.90
75551;BME280;65071;53.082;18.218;2023-02-01T08:00:25;99922.96;;;6.68;69.69
75551;BME280;65071;53.082;18.218;2023-02-01T08:03:10;99921.56;;;7.38;67.39
75551;BME280;65071;53.082;18.218;2023-02-01T08:05:37;99923.77;;;7.74;65.88
75551;BME280;65071;53.082;18.218;2023-02-01T08:08:04;99917.48;;;8.16;64.52
75551;BME280;65071;53.082;18.218;2023-02-01T08:10:31;99919.29;;;8.65;62.48
75551;BME280;65071;53.082;18.218;2023-02-01T08:12:59;99919.07;;;9.16;60.33
75551;BME280;65071;53.082;18.218;2023-02-01T08:15:27;99921.08;;;9.55;61.20
75551;BME280;65071;53.082;18.218;2023-02-01T08:17:55;99923.57;;;9.92;61.00
75551;BME280;65071;53.082;18.218;2023-02-01T08:20:22;99923.23;;;10.18;60.06
75551;BME280;65071;53.082;18.218;2023-02-01T08:22:50;99917.02;;;10.58;58.30
75551;BME280;65071;53.082;18.218;2023-02-01T08:25:17;99910.64;;;10.78;56.68
75551;BME280;65071;53.082;18.218;2023-02-01T08:27:44;99920.81;;;10.52;57.48
75551;BME280;65071;53.082;18.218;2023-02-01T08:30:12;99916.55;;;10.45;58.24
75551;BME280;65071;53.082;18.218;2023-02-01T08:32:39;99919.48;;;10.85;57.41
75551;BME280;65071;53.082;18.218;2023-02-01T08:35:08;99919.41;;;10.76;56.08
75551;BME280;65071;53.082;18.218;2023-02-01T08:37:35;99920.45;;;10.72;56.12
75551;BME280;65071;53.082;18.218;2023-02-01T08:40:03;99922.17;;;10.77;57.18
75551;BME280;65071;53.082;18.218;2023-02-01T08:42:30;99924.95;;;11.02;55.40
75551;BME280;65071;53.082;18.218;2023-02-01T08:45:15;99921.42;;;11.59;55.39
75551;BME280;65071;53.082;18.218;2023-02-01T08:47:42;99922.79;;;12.11;53.14
75551;BME280;65071;53.082;18.218;2023-02-01T08:50:09;99915.38;;;12.61;52.75
75551;BME280;65071;53.082;18.218;2023-02-01T08:52:36;99913.16;;;12.91;52.85
75551;BME280;65071;53.082;18.218;2023-02-01T08:55:04;99911.16;;;13.00;51.95
75551;BME280;65071;53.082;18.218;2023-02-01T08:57:31;99914.42;;;12.76;52.09
75551;BME280;65071;53.082;18.218;2023-02-01T08:59:58;99918.68;;;12.23;51.94
75551;BME280;65071;53.082;18.218;2023-02-01T09:02:26;99915.41;;;11.60;52.56
75551;BME280;65071;53.082;18.218;2023-02-01T09:04:53;99923.45;;;10.86;53.68
75551;BME280;65071;53.082;18.218;2023-02-01T09:07:19;99921.31;;;10.00;55.06
75551;BME280;65071;53.082;18.218;2023-02-01T09:09:46;99919.19;;;9.41;56.25
75551;BME280;65071;53.082;18.218;2023-02-01T09:12:13;99922.52;;;8.80;57.76
75551;BME280;65071;53.082;18.218;2023-02-01T09:14:40;99931.08;;;8.47;58.68
75551;BME280;65071;53.082;18.218;2023-02-01T09:17:06;99935.91;;;8.93;58.78
75551;BME280;65071;53.082;18.218;2023-02-01T09:19:33;99941.00;;;9.64;57.79
75551;BME280;65071;53.082;18.218;2023-02-01T09:22:00;99938.63;;;10.05;57.03
75551;BME280;65071;53.082;18.218;2023-02-01T09:24:26;99949.39;;;10.19;56.55
75551;BME280;65071;53.082;18.218;2023-02-01T09:26:54;99955.58;;;10.03;56.92
75551;BME280;65071;53.082;18.218;2023-02-01T09:29:20;99956.00;;;9.54;58.33
75551;BME280;65071;53.082;18.218;2023-02-01T09:31:47;99962.44;;;9.31;58.77
75551;BME280;65071;53.082;18.218;2023-02-01T09:34:14;99964.02;;;9.00;59.51
75551;BME280;65071;53.082;18.218;2023-02-01T09:36:41;99961.46;;;8.63;60.36
75551;BME280;65071;53.082;18.218;2023-02-01T09:39:07;99958.52;;;8.52;60.91
75551;BME280;65071;53.082;18.218;2023-02-01T09:44:21;99967.40;;;7.96;62.31
75551;BME280;65071;53.082;18.218;2023-02-01T09:46:55;99962.14;;;7.86;62.76
75551;BME280;65071;53.082;18.218;2023-02-01T09:49:36;99967.16;;;7.70;63.16
75551;BME280;65071;53.082;18.218;2023-02-01T09:52:12;99970.17;;;7.62;63.50
75551;BME280;65071;53.082;18.218;2023-02-01T09:54:56;99960.33;;;7.37;64.14
75551;BME280;65071;53.082;18.218;2023-02-01T09:57:53;99959.77;;;7.26;64.62
75551;BME280;65071;53.082;18.218;2023-02-01T10:00:29;99962.73;;;7.16;65.02
75551;BME280;65071;53.082;18.218;2023-02-01T10:02:56;99959.26;;;7.24;65.04
75551;BME280;65071;53.082;18.218;2023-02-01T10:08:33;99960.89;;;8.22;63.63
75551;BME280;65071;53.082;18.218;2023-02-01T10:14:07;99955.80;;;7.90;63.71
75551;BME280;65071;53.082;18.218;2023-02-01T10:19:27;99946.24;;;8.75;62.49
75551;BME280;65071;53.082;18.218;2023-02-01T10:22:03;99941.90;;;8.67;62.26
75551;BME280;65071;53.082;18.218;2023-02-01T10:24:43;99940.87;;;8.54;62.43
75551;BME280;65071;53.082;18.218;2023-02-01T10:27:17;99948.05;;;8.42;62.44
75551;BME280;65071;53.082;18.218;2023-02-01T10:29:48;99951.99;;;8.36;62.27
75551;BME280;65071;53.082;18.218;2023-02-01T10:32:24;99946.40;;;8.38;62.53
75551;BME280;65071;53.082;18.218;2023-02-01T10:35:08;99946.27;;;8.30;62.70
75551;BME280;65071;53.082;18.218;2023-02-01T10:37:40;99940.58;;;8.06;62.99
75551;BME280;65071;53.082;18.218;2023-02-01T10:40:17;99937.98;;;7.84;63.14
75551;BME280;65071;53.082;18.218;2023-02-01T10:42:49;99937.35;;;7.64;63.66
75551;BME280;65071;53.082;18.218;2023-02-01T10:45:20;99932.02;;;7.76;63.96
75551;BME280;65071;53.082;18.218;2023-02-01T10:47:50;99928.52;;;7.82;63.89
75551;BME280;65071;53.082;18.218;2023-02-01T10:55:49;99939.39;;;8.23;63.52
75551;BME280;65071;53.082;18.218;2023-02-01T11:00:48;99938.34;;;7.72;63.47
75551;BME280;65071;53.082;18.218;2023-02-01T11:08:48;99935.27;;;7.44;64.21
75551;BME280;65071;53.082;18.218;2023-02-01T11:11:15;99932.88;;;7.42;64.69
75551;BME280;65071;53.082;18.218;2023-02-01T11:13:43;99939.73;;;7.36;65.05
75551;BME280;65071;53.082;18.218;2023-02-01T11:16:12;99928.16;;;7.40;64.93
75551;BME280;65071;53.082;18.218;2023-02-01T11:18:40;99931.24;;;7.33;65.31
75551;BME280;65071;53.082;18.218;2023-02-01T11:21:08;99929.73;;;7.22;65.74
75551;BME280;65071;53.082;18.218;2023-02-01T11:23:42;99928.08;;;7.12;65.82
75551;BME280;65071;53.082;18.218;2023-02-01T11:26:19;99925.23;;;7.05;66.06
75551;BME280;65071;53.082;18.218;2023-02-01T11:28:54;99920.42;;;6.99;66.29
75551;BME280;65071;53.082;18.218;2023-02-01T11:31:23;99921.10;;;6.96;66.47
75551;BME280;65071;53.082;18.218;2023-02-01T11:36:33;99918.38;;;6.88;67.54
75551;BME280;65071;53.082;18.218;2023-02-01T11:39:17;99917.42;;;6.81;67.78
75551;BME280;65071;53.082;18.218;2023-02-01T11:42:05;99920.01;;;6.79;67.21
75551;BME280;65071;53.082;18.218;2023-02-01T11:44:40;99918.48;;;6.76;67.49
75551;BME280;65071;53.082;18.218;2023-02-01T11:47:20;99911.23;;;6.79;67.34
75551;BME280;65071;53.082;18.218;2023-02-01T11:49:48;99915.13;;;6.74;67.75
75551;BME280;65071;53.082;18.218;2023-02-01T11:52:29;99918.34;;;6.79;67.60
75551;BME280;65071;53.082;18.218;2023-02-01T11:57:49;99917.70;;;7.11;67.53
75551;BME280;65071;53.082;18.218;2023-02-01T12:05:59;99913.05;;;7.00;67.53
75551;BME280;65071;53.082;18.218;2023-02-01T12:08:37;99912.38;;;6.99;67.76
75551;BME280;65071;53.082;18.218;2023-02-01T12:13:55;99902.34;;;7.41;67.80
75551;BME280;65071;53.082;18.218;2023-02-01T12:19:33;99889.77;;;8.45;65.90
75551;BME280;65071;53.082;18.218;2023-02-01T12:22:18;99885.58;;;9.67;63.98
75551;BME280;65071;53.082;18.218;2023-02-01T12:25:18;99893.84;;;11.12;60.73
75551;BME280;65071;53.082;18.218;2023-02-01T12:36:14;99896.41;;;9.34;60.76
75551;BME280;65071;53.082;18.218;2023-02-01T12:44:56;99889.05;;;8.04;62.93
75551;BME280;65071;53.082;18.218;2023-02-01T12:47:38;99882.81;;;7.59;63.80
75551;BME280;65071;53.082;18.218;2023-02-01T12:50:23;99882.98;;;7.40;64.67
75551;BME280;65071;53.082;18.218;2023-02-01T12:52:55;99888.77;;;7.28;65.21
75551;BME280;65071;53.082;18.218;2023-02-01T12:55:32;99890.30;;;7.22;65.44
75551;BME280;65071;53.082;18.218;2023-02-01T12:58:12;99892.42;;;7.01;65.67
75551;BME280;65071;53.082;18.218;2023-02-01T13:01:25;99884.95;;;6.93;65.85
75551;BME280;65071;53.082;18.218;2023-02-01T13:03:57;99887.42;;;6.75;66.18
75551;BME280;65071;53.082;18.218;2023-02-01T13:06:38;99891.77;;;6.62;66.60
75551;BME280;65071;53.082;18.218;2023-02-01T13:11:51;99891.27;;;6.49;67.73
75551;BME280;65071;53.082;18.218;2023-02-01T13:17:09;99902.46;;;6.33;67.81
75551;BME280;65071;53.082;18.218;2023-02-01T13:20:00;99905.43;;;6.34;67.86
75551;BME280;65071;53.082;18.218;2023-02-01T13:22:33;99912.02;;;6.23;68.47
75551;BME280;65071;53.082;18.218;2023-02-01T13:25:04;99907.80;;;6.26;68.88
75551;BME280;65071;53.082;18.218;2023-02-01T13:27:39;99912.81;;;6.28;69.17
75551;BME280;65071;53.082;18.218;2023-02-01T13:30:19;99911.57;;;6.30;68.56
75551;BME280;65071;53.082;18.218;2023-02-01T13:33:02;99911.06;;;6.22;68.22
75551;BME280;65071;53.082;18.218;2023-02-01T13:35:55;99914.40;;;6.10;68.53
75551;BME280;65071;53.082;18.218;2023-02-01T13:41:33;99923.89;;;6.00;68.66
75551;BME280;65071;53.082;18.218;2023-02-01T13:44:12;99929.70;;;5.95;69.43
75551;BME280;65071;53.082;18.218;2023-02-01T13:46:42;99926.13;;;5.92;69.18
75551;BME280;65071;53.082;18.218;2023-02-01T13:49:20;99925.75;;;5.88;69.27
75551;BME280;65071;53.082;18.218;2023-02-01T13:51:51;99924.67;;;5.84;69.68
75551;BME280;65071;53.082;18.218;2023-02-01T13:54:32;99926.80;;;5.88;69.24
75551;BME280;65071;53.082;18.218;2023-02-01T13:57:00;99923.85;;;5.88;69.38
75551;BME280;65071;53.082;18.218;2023-02-01T14:05:12;99929.30;;;6.00;69.67
75551;BME280;65071;53.082;18.218;2023-02-01T14:10:55;99929.39;;;5.91;69.38
75551;BME280;65071;53.082;18.218;2023-02-01T14:13:39;99933.15;;;5.89;69.53
75551;BME280;65071;53.082;18.218;2023-02-01T14:16:14;99930.74;;;5.92;69.63
75551;BME280;65071;53.082;18.218;2023-02-01T14:21:32;99926.19;;;5.91;69.67
75551;BME280;65071;53.082;18.218;2023-02-01T14:29:40;99918.98;;;5.66;70.37
75551;BME280;65071;53.082;18.218;2023-02-01T14:32:25;99920.36;;;5.63;70.32
75551;BME280;65071;53.082;18.218;2023-02-01T14:34:55;99921.61;;;5.69;70.60
75551;BME280;65071;53.082;18.218;2023-02-01T14:37:29;99923.62;;;5.70;70.42
75551;BME280;65071;53.082;18.218;2023-02-01T14:42:46;99918.23;;;5.59;70.49
75551;BME280;65071;53.082;18.218;2023-02-01T14:47:47;99917.21;;;5.55;70.65
75551;BME280;65071;53.082;18.218;2023-02-01T14:55:48;99928.36;;;5.45;70.97
75551;BME280;65071;53.082;18.218;2023-02-01T15:01:00;99918.73;;;5.35;71.08
75551;BME280;65071;53.082;18.218;2023-02-01T15:06:39;99917.20;;;5.29;71.44
75551;BME280;65071;53.082;18.218;2023-02-01T15:14:21;99907.02;;;5.21;71.24
75551;BME280;65071;53.082;18.218;2023-02-01T15:16:48;99908.62;;;5.19;71.38
75551;BME280;65071;53.082;18.218;2023-02-01T15:19:22;99903.90;;;5.16;71.24
75551;BME280;65071;53.082;18.218;2023-02-01T15:21:52;99903.71;;;5.12;71.46
75551;BME280;65071;53.082;18.218;2023-02-01T15:24:24;99909.54;;;5.13;71.70
75551;BME280;65071;53.082;18.218;2023-02-01T15:26:53;99912.69;;;5.10;71.44
75551;BME280;65071;53.082;18.218;2023-02-01T15:29:23;99911.94;;;5.04;71.61